sensor_id;sensor_type;location;lat;lon;timestamp;temperature;humidity
61016;DHT22;46902;52.920;6.536;2023-11-19T00:00:26;11.00;99.90
61016;DHT22;46902;52.920;6.536;2023-11-19T00:02:52;11.00;99.90
61016;DHT22;46902;52.920;6.536;2023-11-19T00:05:18;11.10;99.90
61016;DHT22;46902;52.920;6.536;2023-11-19T00:07:44;11.10;99.90
61016;DHT22;46902;52.920;6.536;2023-11-19T00:10:16;11.20;99.90
61016;DHT22;46902;52.920;6.536;2023-11-19T00:12:47;11.30;99.90
61016;DHT22;46902;52.920;6.536;2023-11-19T00:15:13;11.30;99.90
61016;DHT22;46902;52.920;6.536;2023-11-19T00:17:44;11.40;99.90
61016;DHT22;46902;52.920;6.536;2023-11-19T00:20:14;11.30;99.90
61016;DHT22;46902;52.920;6.536;2023-11-19T00:22:40;11.40;99.90
61016;DHT22;46902;52.920;6.536;2023-11-19T00:25:07;11.50;99.90
61016;DHT22;46902;52.920;6.536;2023-11-19T00:27:33;11.60;99.90
61016;DHT22;46902;52.920;6.536;2023-11-19T00:29:59;11.60;99.90
61016;DHT22;46902;52.920;6.536;2023-11-19T00:32:24;11.60;99.90
61016;DHT22;46902;52.920;6.536;2023-11-19T00:34:50;11.60;99.90
61016;DHT22;46902;52.920;6.536;2023-11-19T00:37:16;11.70;99.90
61016;DHT22;46902;52.920;6.536;2023-11-19T00:39:42;11.70;99.90
61016;DHT22;46902;52.920;6.536;2023-11-19T00:42:09;11.70;99.90
61016;DHT22;46902;52.920;6.536;2023-11-19T00:44:39;11.80;99.90
61016;DHT22;46902;52.920;6.536;2023-11-19T00:47:05;11.70;99.90
61016;DHT22;46902;52.920;6.536;2023-11-19T00:49:33;11.80;99.90
61016;DHT22;46902;52.920;6.536;2023-11-19T00:51:59;11.70;99.90
61016;DHT22;46902;52.920;6.536;2023-11-19T00:54:25;11.70;99.90
61016;DHT22;46902;52.920;6.536;2023-11-19T00:56:54;11.70;99.90
61016;DHT22;46902;52.920;6.536;2023-11-19T00:59:20;11.70;99.90
61016;DHT22;46902;52.920;6.536;2023-11-19T01:01:46;11.70;99.90
61016;DHT22;46902;52.920;6.536;2023-11-19T01:04:14;11.70;99.90
61016;DHT22;46902;52.920;6.536;2023-11-19T01:06:40;11.70;99.90
61016;DHT22;46902;52.920;6.536;2023-11-19T01:09:05;11.70;99.90
61016;DHT22;46902;52.920;6.536;2023-11-19T01:11:31;11.80;99.90
61016;DHT22;46902;52.920;6.536;2023-11-19T01:13:57;11.70;99.90
61016;DHT22;46902;52.920;6.536;2023-11-19T01:16:22;11.80;99.90
61016;DHT22;46902;52.920;6.536;2023-11-19T01:18:48;11.80;99.90
61016;DHT22;46902;52.920;6.536;2023-11-19T01:21:14;11.80;99.90
61016;DHT22;46902;52.920;6.536;2023-11-19T01:23:40;11.80;99.90
61016;DHT22;46902;52.920;6.536;2023-11-19T01:26:09;11.80;99.90
61016;DHT22;46902;52.920;6.536;2023-11-19T01:28:36;11.90;99.90
61016;DHT22;46902;52.920;6.536;2023-11-19T01:31:01;11.90;99.90
61016;DHT22;46902;52.920;6.536;2023-11-19T01:33:27;11.90;99.90
61016;DHT22;46902;52.920;6.536;2023-11-19T01:35:53;12.00;99.90
61016;DHT22;46902;52.920;6.536;2023-11-19T01:38:19;12.00;99.90
61016;DHT22;46902;52.920;6.536;2023-11-19T01:40:44;12.00;99.90
61016;DHT22;46902;52.920;6.536;2023-11-19T01:43:10;12.00;99.90
61016;DHT22;46902;52.920;6.536;2023-11-19T01:45:37;12.00;99.90
61016;DHT22;46902;52.920;6.536;2023-11-19T01:48:04;12.10;99.90
61016;DHT22;46902;52.920;6.536;2023-11-19T01:50:30;12.00;99.90
61016;DHT22;46902;52.920;6.536;2023-11-19T01:52:57;12.00;99.90
61016;DHT22;46902;52.920;6.536;2023-11-19T01:55:27;12.10;99.90
61016;DHT22;46902;52.920;6.536;2023-11-19T01:57:59;12.00;99.90
61016;DHT22;46902;52.920;6.536;2023-11-19T02:00:25;12.00;99.90
61016;DHT22;46902;52.920;6.536;2023-11-19T02:02:52;12.00;99.90
61016;DHT22;46902;52.920;6.536;2023-11-19T02:05:18;12.00;99.90
61016;DHT22;46902;52.920;6.536;2023-11-19T02:07:43;12.00;99.90
61016;DHT22;46902;52.920;6.536;2023-11-19T02:10:10;12.10;99.90
61016;DHT22;46902;52.920;6.536;2023-11-19T02:12:41;12.10;99.90
61016;DHT22;46902;52.920;6.536;2023-11-19T02:15:10;12.10;99.90
61016;DHT22;46902;52.920;6.536;2023-11-19T02:17:36;12.10;99.90
61016;DHT22;46902;52.920;6.536;2023-11-19T02:20:04;12.10;99.90
61016;DHT22;46902;52.920;6.536;2023-11-19T02:22:34;12.10;99.90
61016;DHT22;46902;52.920;6.536;2023-11-19T02:25:46;12.10;99.90
61016;DHT22;46902;52.920;6.536;2023-11-19T02:27:59;12.00;99.90
61016;DHT22;46902;52.920;6.536;2023-11-19T02:30:26;12.10;99.90
61016;DHT22;46902;52.920;6.536;2023-11-19T02:32:55;12.10;99.90
61016;DHT22;46902;52.920;6.536;2023-11-19T02:35:24;12.10;99.90
61016;DHT22;46902;52.920;6.536;2023-11-19T02:37:49;12.10;99.90
61016;DHT22;46902;52.920;6.536;2023-11-19T02:40:15;12.20;99.90
61016;DHT22;46902;52.920;6.536;2023-11-19T02:42:41;12.10;99.90
61016;DHT22;46902;52.920;6.536;2023-11-19T02:45:07;12.10;99.90
61016;DHT22;46902;52.920;6.536;2023-11-19T02:47:36;12.00;99.90
61016;DHT22;46902;52.920;6.536;2023-11-19T02:50:01;12.00;99.90
61016;DHT22;46902;52.920;6.536;2023-11-19T02:52:27;12.00;99.90
61016;DHT22;46902;52.920;6.536;2023-11-19T02:54:53;12.10;99.90
61016;DHT22;46902;52.920;6.536;2023-11-19T02:57:19;12.00;99.90
61016;DHT22;46902;52.920;6.536;2023-11-19T02:59:46;12.10;99.90
61016;DHT22;46902;52.920;6.536;2023-11-19T03:02:11;12.00;99.90
61016;DHT22;46902;52.920;6.536;2023-11-19T03:04:40;12.00;99.90
61016;DHT22;46902;52.920;6.536;2023-11-19T03:07:06;12.10;99.90
61016;DHT22;46902;52.920;6.536;2023-11-19T03:09:35;12.00;99.90
61016;DHT22;46902;52.920;6.536;2023-11-19T03:12:01;12.00;99.90
61016;DHT22;46902;52.920;6.536;2023-11-19T03:14:27;12.00;99.90
61016;DHT22;46902;52.920;6.536;2023-11-19T03:16:53;12.00;99.90
61016;DHT22;46902;52.920;6.536;2023-11-19T03:19:18;12.00;99.90
61016;DHT22;46902;52.920;6.536;2023-11-19T03:21:44;12.00;99.90
61016;DHT22;46902;52.920;6.536;2023-11-19T03:24:12;11.90;99.90
61016;DHT22;46902;52.920;6.536;2023-11-19T03:26:38;11.90;99.90
61016;DHT22;46902;52.920;6.536;2023-11-19T03:29:04;11.90;99.90
61016;DHT22;46902;52.920;6.536;2023-11-19T03:31:30;11.90;99.90
61016;DHT22;46902;52.920;6.536;2023-11-19T03:33:55;12.00;99.90
61016;DHT22;46902;52.920;6.536;2023-11-19T03:36:21;11.90;99.90
61016;DHT22;46902;52.920;6.536;2023-11-19T03:38:47;11.90;99.90
61016;DHT22;46902;52.920;6.536;2023-11-19T03:41:14;11.90;99.90
61016;DHT22;46902;52.920;6.536;2023-11-19T03:43:40;11.90;99.90
61016;DHT22;46902;52.920;6.536;2023-11-19T03:46:19;11.90;99.90
61016;DHT22;46902;52.920;6.536;2023-11-19T03:48:46;11.90;99.90
61016;DHT22;46902;52.920;6.536;2023-11-19T03:51:12;11.90;99.90
61016;DHT22;46902;52.920;6.536;2023-11-19T03:53:42;11.90;99.90
61016;DHT22;46902;52.920;6.536;2023-11-19T03:56:08;12.00;99.90
61016;DHT22;46902;52.920;6.536;2023-11-19T03:58:35;11.90;99.90
61016;DHT22;46902;52.920;6.536;2023-11-19T04:01:01;11.90;99.90
61016;DHT22;46902;52.920;6.536;2023-11-19T04:03:28;11.90;99.90
61016;DHT22;46902;52.920;6.536;2023-11-19T04:05:53;11.90;99.90
61016;DHT22;46902;52.920;6.536;2023-11-19T04:08:19;11.90;99.90
61016;DHT22;46902;52.920;6.536;2023-11-19T04:10:45;11.90;99.90
61016;DHT22;46902;52.920;6.536;2023-11-19T04:13:10;11.80;99.90
61016;DHT22;46902;52.920;6.536;2023-11-19T04:15:36;11.80;99.90
61016;DHT22;46902;52.920;6.536;2023-11-19T04:18:02;11.80;99.90
61016;DHT22;46902;52.920;6.536;2023-11-19T04:20:27;11.70;99.90
61016;DHT22;46902;52.920;6.536;2023-11-19T04:22:53;11.70;99.90
61016;DHT22;46902;52.920;6.536;2023-11-19T04:25:19;11.70;99.90
61016;DHT22;46902;52.920;6.536;2023-11-19T04:27:45;11.70;99.90
61016;DHT22;46902;52.920;6.536;2023-11-19T04:30:11;11.70;99.90
61016;DHT22;46902;52.920;6.536;2023-11-19T04:32:37;11.70;99.90
61016;DHT22;46902;52.920;6.536;2023-11-19T04:35:03;11.60;99.90
61016;DHT22;46902;52.920;6.536;2023-11-19T04:37:28;11.60;99.90
61016;DHT22;46902;52.920;6.536;2023-11-19T04:39:54;11.60;99.90
61016;DHT22;46902;52.920;6.536;2023-11-19T04:42:22;11.60;99.90
61016;DHT22;46902;52.920;6.536;2023-11-19T04:44:48;11.50;99.90
61016;DHT22;46902;52.920;6.536;2023-11-19T04:47:14;11.50;99.90
61016;DHT22;46902;52.920;6.536;2023-11-19T04:49:42;11.50;99.90
61016;DHT22;46902;52.920;6.536;2023-11-19T04:52:08;11.50;99.90
61016;DHT22;46902;52.920;6.536;2023-11-19T04:54:34;11.50;99.90
61016;DHT22;46902;52.920;6.536;2023-11-19T04:56:59;11.50;99.90
61016;DHT22;46902;52.920;6.536;2023-11-19T04:59:25;11.50;99.90
61016;DHT22;46902;52.920;6.536;2023-11-19T05:01:52;11.50;99.90
61016;DHT22;46902;52.920;6.536;2023-11-19T05:04:18;11.40;99.90
61016;DHT22;46902;52.920;6.536;2023-11-19T05:06:44;11.50;99.90
61016;DHT22;46902;52.920;6.536;2023-11-19T05:09:09;11.40;99.90
61016;DHT22;46902;52.920;6.536;2023-11-19T05:11:38;11.40;99.90
61016;DHT22;46902;52.920;6.536;2023-11-19T05:14:04;11.30;99.90
61016;DHT22;46902;52.920;6.536;2023-11-19T05:16:31;11.30;99.90
61016;DHT22;46902;52.920;6.536;2023-11-19T05:18:57;11.30;99.90
61016;DHT22;46902;52.920;6.536;2023-11-19T05:21:22;11.30;99.90
61016;DHT22;46902;52.920;6.536;2023-11-19T05:23:49;11.40;99.90
61016;DHT22;46902;52.920;6.536;2023-11-19T05:26:19;11.40;99.90
61016;DHT22;46902;52.920;6.536;2023-11-19T05:28:45;11.40;99.90
61016;DHT22;46902;52.920;6.536;2023-11-19T05:31:10;11.30;99.90
61016;DHT22;46902;52.920;6.536;2023-11-19T05:33:36;11.40;99.90
61016;DHT22;46902;52.920;6.536;2023-11-19T05:36:02;11.40;99.90
61016;DHT22;46902;52.920;6.536;2023-11-19T05:38:29;11.40;99.90
61016;DHT22;46902;52.920;6.536;2023-11-19T05:40:55;11.40;99.90
61016;DHT22;46902;52.920;6.536;2023-11-19T05:43:22;11.40;99.90
61016;DHT22;46902;52.920;6.536;2023-11-19T05:45:47;11.40;99.90
61016;DHT22;46902;52.920;6.536;2023-11-19T05:48:13;11.40;99.90
61016;DHT22;46902;52.920;6.536;2023-11-19T05:50:39;11.40;99.90
61016;DHT22;46902;52.920;6.536;2023-11-19T05:53:05;11.50;99.90
61016;DHT22;46902;52.920;6.536;2023-11-19T05:55:35;11.40;99.90
61016;DHT22;46902;52.920;6.536;2023-11-19T05:58:01;11.40;99.90
61016;DHT22;46902;52.920;6.536;2023-11-19T06:00:27;11.40;99.90
61016;DHT22;46902;52.920;6.536;2023-11-19T06:02:52;11.40;99.90
61016;DHT22;46902;52.920;6.536;2023-11-19T06:05:18;11.40;99.90
61016;DHT22;46902;52.920;6.536;2023-11-19T06:07:44;11.30;99.90
61016;DHT22;46902;52.920;6.536;2023-11-19T06:10:10;11.30;99.90
61016;DHT22;46902;52.920;6.536;2023-11-19T06:12:36;11.30;99.90
61016;DHT22;46902;52.920;6.536;2023-11-19T06:15:07;11.30;99.90
61016;DHT22;46902;52.920;6.536;2023-11-19T06:17:34;11.30;99.90
61016;DHT22;46902;52.920;6.536;2023-11-19T06:19:59;11.30;99.90
61016;DHT22;46902;52.920;6.536;2023-11-19T06:22:25;11.20;99.90
61016;DHT22;46902;52.920;6.536;2023-11-19T06:24:51;11.30;99.90
61016;DHT22;46902;52.920;6.536;2023-11-19T06:27:16;11.20;99.90
61016;DHT22;46902;52.920;6.536;2023-11-19T06:29:42;11.20;99.90
61016;DHT22;46902;52.920;6.536;2023-11-19T06:32:07;11.20;99.90
61016;DHT22;46902;52.920;6.536;2023-11-19T06:34:34;11.20;99.90
61016;DHT22;46902;52.920;6.536;2023-11-19T06:36:59;11.20;99.90
61016;DHT22;46902;52.920;6.536;2023-11-19T06:39:25;11.20;99.90
61016;DHT22;46902;52.920;6.536;2023-11-19T06:41:51;11.20;99.90
61016;DHT22;46902;52.920;6.536;2023-11-19T06:44:17;11.20;99.90
61016;DHT22;46902;52.920;6.536;2023-11-19T06:46:43;11.20;99.90
61016;DHT22;46902;52.920;6.536;2023-11-19T06:49:09;11.10;99.90
61016;DHT22;46902;52.920;6.536;2023-11-19T06:51:34;11.10;99.90
61016;DHT22;46902;52.920;6.536;2023-11-19T06:54:00;11.20;99.90
61016;DHT22;46902;52.920;6.536;2023-11-19T06:56:26;11.20;99.90
61016;DHT22;46902;52.920;6.536;2023-11-19T06:58:52;11.20;99.90
61016;DHT22;46902;52.920;6.536;2023-11-19T07:01:19;11.20;99.90
61016;DHT22;46902;52.920;6.536;2023-11-19T07:03:45;11.30;99.90
61016;DHT22;46902;52.920;6.536;2023-11-19T07:06:11;11.20;99.90
61016;DHT22;46902;52.920;6.536;2023-11-19T07:08:38;11.30;99.90
61016;DHT22;46902;52.920;6.536;2023-11-19T07:11:04;11.20;99.90
61016;DHT22;46902;52.920;6.536;2023-11-19T07:13:30;11.20;99.90
61016;DHT22;46902;52.920;6.536;2023-11-19T07:15:56;11.30;99.90
61016;DHT22;46902;52.920;6.536;2023-11-19T07:18:22;11.30;99.90
61016;DHT22;46902;52.920;6.536;2023-11-19T07:20:48;11.30;99.90
61016;DHT22;46902;52.920;6.536;2023-11-19T07:23:14;11.30;99.90
61016;DHT22;46902;52.920;6.536;2023-11-19T07:25:43;11.20;99.90
61016;DHT22;46902;52.920;6.536;2023-11-19T07:28:12;11.20;99.90
61016;DHT22;46902;52.920;6.536;2023-11-19T07:30:38;11.20;99.90
61016;DHT22;46902;52.920;6.536;2023-11-19T07:33:04;11.30;99.90
61016;DHT22;46902;52.920;6.536;2023-11-19T07:35:30;11.20;99.90
61016;DHT22;46902;52.920;6.536;2023-11-19T07:37:56;11.20;99.90
61016;DHT22;46902;52.920;6.536;2023-11-19T07:40:23;11.30;99.90
61016;DHT22;46902;52.920;6.536;2023-11-19T07:42:49;11.20;99.90
61016;DHT22;46902;52.920;6.536;2023-11-19T07:45:15;11.30;99.90
61016;DHT22;46902;52.920;6.536;2023-11-19T07:47:40;11.20;99.90
61016;DHT22;46902;52.920;6.536;2023-11-19T07:50:06;11.20;99.90
61016;DHT22;46902;52.920;6.536;2023-11-19T07:52:32;11.20;99.90
61016;DHT22;46902;52.920;6.536;2023-11-19T07:54:58;11.20;99.90
61016;DHT22;46902;52.920;6.536;2023-11-19T07:57:24;11.20;99.90
61016;DHT22;46902;52.920;6.536;2023-11-19T07:59:50;11.20;99.90
61016;DHT22;46902;52.920;6.536;2023-11-19T08:02:15;11.20;99.90
61016;DHT22;46902;52.920;6.536;2023-11-19T08:04:41;11.30;99.90
61016;DHT22;46902;52.920;6.536;2023-11-19T08:07:10;11.20;99.90
61016;DHT22;46902;52.920;6.536;2023-11-19T08:09:36;11.30;99.90
61016;DHT22;46902;52.920;6.536;2023-11-19T08:12:03;11.30;99.90
61016;DHT22;46902;52.920;6.536;2023-11-19T08:14:29;11.30;99.90
61016;DHT22;46902;52.920;6.536;2023-11-19T08:16:54;11.30;99.90
61016;DHT22;46902;52.920;6.536;2023-11-19T08:19:20;11.30;99.90
61016;DHT22;46902;52.920;6.536;2023-11-19T08:21:46;11.30;99.90
61016;DHT22;46902;52.920;6.536;2023-11-19T08:24:11;11.30;99.90
61016;DHT22;46902;52.920;6.536;2023-11-19T08:26:37;11.30;99.90
61016;DHT22;46902;52.920;6.536;2023-11-19T08:29:02;11.30;99.90
61016;DHT22;46902;52.920;6.536;2023-11-19T08:31:28;11.30;99.90
61016;DHT22;46902;52.920;6.536;2023-11-19T08:33:54;11.30;99.90
61016;DHT22;46902;52.920;6.536;2023-11-19T08:36:20;11.40;99.90
61016;DHT22;46902;52.920;6.536;2023-11-19T08:38:46;11.40;99.90
61016;DHT22;46902;52.920;6.536;2023-11-19T08:41:12;11.40;99.90
61016;DHT22;46902;52.920;6.536;2023-11-19T08:43:37;11.30;99.90
61016;DHT22;46902;52.920;6.536;2023-11-19T08:46:09;11.40;99.90
61016;DHT22;46902;52.920;6.536;2023-11-19T08:48:35;11.30;99.90
61016;DHT22;46902;52.920;6.536;2023-11-19T08:51:00;11.30;99.90
61016;DHT22;46902;52.920;6.536;2023-11-19T08:53:26;11.30;99.90
61016;DHT22;46902;52.920;6.536;2023-11-19T08:55:51;11.30;99.90
61016;DHT22;46902;52.920;6.536;2023-11-19T08:58:17;11.30;99.90
61016;DHT22;46902;52.920;6.536;2023-11-19T09:00:43;11.30;99.90
61016;DHT22;46902;52.920;6.536;2023-11-19T09:03:09;11.30;99.90
61016;DHT22;46902;52.920;6.536;2023-11-19T09:05:35;11.40;99.90
61016;DHT22;46902;52.920;6.536;2023-11-19T09:08:00;11.30;99.90
61016;DHT22;46902;52.920;6.536;2023-11-19T09:10:26;11.40;99.90
61016;DHT22;46902;52.920;6.536;2023-11-19T09:12:52;11.50;99.90
61016;DHT22;46902;52.920;6.536;2023-11-19T09:15:18;11.40;99.90
61016;DHT22;46902;52.920;6.536;2023-11-19T09:17:43;11.50;99.90
61016;DHT22;46902;52.920;6.536;2023-11-19T09:20:11;11.50;99.90
61016;DHT22;46902;52.920;6.536;2023-11-19T09:22:40;11.50;99.90
61016;DHT22;46902;52.920;6.536;2023-11-19T09:25:06;11.50;99.90
61016;DHT22;46902;52.920;6.536;2023-11-19T09:27:31;11.60;99.90
61016;DHT22;46902;52.920;6.536;2023-11-19T09:29:57;11.60;99.90
61016;DHT22;46902;52.920;6.536;2023-11-19T09:32:24;11.60;99.90
61016;DHT22;46902;52.920;6.536;2023-11-19T09:34:49;11.60;99.90
61016;DHT22;46902;52.920;6.536;2023-11-19T09:37:15;11.60;99.90
61016;DHT22;46902;52.920;6.536;2023-11-19T09:39:41;11.60;99.90
61016;DHT22;46902;52.920;6.536;2023-11-19T09:42:09;11.70;99.90
61016;DHT22;46902;52.920;6.536;2023-11-19T09:44:37;11.70;99.90
61016;DHT22;46902;52.920;6.536;2023-11-19T09:47:04;11.70;99.90
61016;DHT22;46902;52.920;6.536;2023-11-19T09:49:31;11.70;99.90
61016;DHT22;46902;52.920;6.536;2023-11-19T09:51:56;11.70;99.90
61016;DHT22;46902;52.920;6.536;2023-11-19T09:54:22;11.70;99.90
61016;DHT22;46902;52.920;6.536;2023-11-19T09:56:48;11.80;99.90
61016;DHT22;46902;52.920;6.536;2023-11-19T09:59:14;11.80;99.90
61016;DHT22;46902;52.920;6.536;2023-11-19T10:01:40;11.80;99.90
61016;DHT22;46902;52.920;6.536;2023-11-19T10:04:06;11.80;99.90
61016;DHT22;46902;52.920;6.536;2023-11-19T10:06:32;11.80;99.90
61016;DHT22;46902;52.920;6.536;2023-11-19T10:08:58;11.80;99.90
61016;DHT22;46902;52.920;6.536;2023-11-19T10:11:25;11.80;99.90
61016;DHT22;46902;52.920;6.536;2023-11-19T10:13:52;11.80;99.90
61016;DHT22;46902;52.920;6.536;2023-11-19T10:16:18;11.70;99.90
61016;DHT22;46902;52.920;6.536;2023-11-19T10:18:48;11.80;99.90
61016;DHT22;46902;52.920;6.536;2023-11-19T10:21:18;11.70;99.90
61016;DHT22;46902;52.920;6.536;2023-11-19T10:26:17;11.70;99.90
61016;DHT22;46902;52.920;6.536;2023-11-19T10:28:43;11.70;99.90
61016;DHT22;46902;52.920;6.536;2023-11-19T10:31:13;11.70;99.90
61016;DHT22;46902;52.920;6.536;2023-11-19T10:33:38;11.70;99.90
61016;DHT22;46902;52.920;6.536;2023-11-19T10:36:04;11.60;99.90
61016;DHT22;46902;52.920;6.536;2023-11-19T10:38:30;11.60;99.90
61016;DHT22;46902;52.920;6.536;2023-11-19T10:40:56;11.60;99.90
61016;DHT22;46902;52.920;6.536;2023-11-19T10:43:22;11.60;99.90
61016;DHT22;46902;52.920;6.536;2023-11-19T10:45:48;11.60;99.90
61016;DHT22;46902;52.920;6.536;2023-11-19T10:48:14;11.60;99.90
61016;DHT22;46902;52.920;6.536;2023-11-19T10:50:42;11.60;99.90
61016;DHT22;46902;52.920;6.536;2023-11-19T10:53:10;11.60;99.90
61016;DHT22;46902;52.920;6.536;2023-11-19T10:55:37;11.70;99.90
61016;DHT22;46902;52.920;6.536;2023-11-19T10:58:09;11.70;99.90
61016;DHT22;46902;52.920;6.536;2023-11-19T11:00:45;11.80;99.90
61016;DHT22;46902;52.920;6.536;2023-11-19T11:03:17;11.80;99.90
61016;DHT22;46902;52.920;6.536;2023-11-19T11:05:46;11.80;99.90
61016;DHT22;46902;52.920;6.536;2023-11-19T11:08:13;11.80;99.90
61016;DHT22;46902;52.920;6.536;2023-11-19T11:10:53;11.80;99.90
61016;DHT22;46902;52.920;6.536;2023-11-19T11:13:19;11.70;99.90
61016;DHT22;46902;52.920;6.536;2023-11-19T11:15:45;11.70;99.90
61016;DHT22;46902;52.920;6.536;2023-11-19T11:18:13;11.60;99.90
61016;DHT22;46902;52.920;6.536;2023-11-19T11:20:39;11.60;99.90
61016;DHT22;46902;52.920;6.536;2023-11-19T11:28:48;11.70;99.90
61016;DHT22;46902;52.920;6.536;2023-11-19T11:39:11;11.70;99.90
61016;DHT22;46902;52.920;6.536;2023-11-19T11:41:38;11.70;99.90
61016;DHT22;46902;52.920;6.536;2023-11-19T11:44:04;11.70;99.90
61016;DHT22;46902;52.920;6.536;2023-11-19T11:51:57;11.60;99.90
61016;DHT22;46902;52.920;6.536;2023-11-19T11:57:11;11.60;99.90
61016;DHT22;46902;52.920;6.536;2023-11-19T11:59:50;11.60;99.90
61016;DHT22;46902;52.920;6.536;2023-11-19T12:02:18;11.60;99.90
61016;DHT22;46902;52.920;6.536;2023-11-19T12:04:51;11.50;99.90
61016;DHT22;46902;52.920;6.536;2023-11-19T12:07:19;11.50;99.90
61016;DHT22;46902;52.920;6.536;2023-11-19T12:09:56;11.60;99.90
61016;DHT22;46902;52.920;6.536;2023-11-19T12:12:32;11.60;99.90
61016;DHT22;46902;52.920;6.536;2023-11-19T12:17:37;11.50;99.90
61016;DHT22;46902;52.920;6.536;2023-11-19T12:20:06;11.50;99.90
61016;DHT22;46902;52.920;6.536;2023-11-19T12:22:37;11.60;99.90
61016;DHT22;46902;52.920;6.536;2023-11-19T12:25:02;11.50;99.90
61016;DHT22;46902;52.920;6.536;2023-11-19T12:27:29;11.50;99.90
61016;DHT22;46902;52.920;6.536;2023-11-19T12:29:55;11.50;99.90
61016;DHT22;46902;52.920;6.536;2023-11-19T12:32:22;11.50;99.90
61016;DHT22;46902;52.920;6.536;2023-11-19T12:34:48;11.50;99.90
61016;DHT22;46902;52.920;6.536;2023-11-19T12:37:13;11.50;99.90
61016;DHT22;46902;52.920;6.536;2023-11-19T12:39:39;11.50;99.90
61016;DHT22;46902;52.920;6.536;2023-11-19T12:42:05;11.50;99.90
61016;DHT22;46902;52.920;6.536;2023-11-19T12:44:31;11.50;99.90
61016;DHT22;46902;52.920;6.536;2023-11-19T12:47:04;11.50;99.90
61016;DHT22;46902;52.920;6.536;2023-11-19T12:49:30;11.50;99.90
61016;DHT22;46902;52.920;6.536;2023-11-19T12:51:55;11.50;99.90
61016;DHT22;46902;52.920;6.536;2023-11-19T12:54:41;11.50;99.90
61016;DHT22;46902;52.920;6.536;2023-11-19T12:57:07;11.60;99.90
61016;DHT22;46902;52.920;6.536;2023-11-19T12:59:33;11.50;99.90
61016;DHT22;46902;52.920;6.536;2023-11-19T13:01:59;11.50;99.90
61016;DHT22;46902;52.920;6.536;2023-11-19T13:04:29;11.60;99.90
61016;DHT22;46902;52.920;6.536;2023-11-19T13:07:01;11.60;99.90
61016;DHT22;46902;52.920;6.536;2023-11-19T13:09:29;11.60;99.90
61016;DHT22;46902;52.920;6.536;2023-11-19T13:11:56;11.50;99.90
61016;DHT22;46902;52.920;6.536;2023-11-19T13:14:22;11.50;99.90
61016;DHT22;46902;52.920;6.536;2023-11-19T13:16:48;11.60;99.90
61016;DHT22;46902;52.920;6.536;2023-11-19T13:19:17;11.60;99.90
61016;DHT22;46902;52.920;6.536;2023-11-19T13:21:44;11.60;99.90
61016;DHT22;46902;52.920;6.536;2023-11-19T13:24:12;11.60;99.90
61016;DHT22;46902;52.920;6.536;2023-11-19T13:26:38;11.60;99.90
61016;DHT22;46902;52.920;6.536;2023-11-19T13:29:04;11.60;99.90
61016;DHT22;46902;52.920;6.536;2023-11-19T13:31:29;11.60;99.90
61016;DHT22;46902;52.920;6.536;2023-11-19T13:33:55;11.60;99.90
61016;DHT22;46902;52.920;6.536;2023-11-19T13:36:22;11.60;99.90
61016;DHT22;46902;52.920;6.536;2023-11-19T13:38:47;11.60;99.90
61016;DHT22;46902;52.920;6.536;2023-11-19T13:41:13;11.50;99.90
61016;DHT22;46902;52.920;6.536;2023-11-19T13:43:39;11.50;99.90
61016;DHT22;46902;52.920;6.536;2023-11-19T13:46:05;11.50;99.90
61016;DHT22;46902;52.920;6.536;2023-11-19T13:48:31;11.60;99.90
61016;DHT22;46902;52.920;6.536;2023-11-19T13:50:57;11.60;99.90
61016;DHT22;46902;52.920;6.536;2023-11-19T13:53:23;11.60;99.90
61016;DHT22;46902;52.920;6.536;2023-11-19T13:55:49;11.60;99.90
61016;DHT22;46902;52.920;6.536;2023-11-19T13:58:15;11.60;99.90
61016;DHT22;46902;52.920;6.536;2023-11-19T14:00:41;11.60;99.90
61016;DHT22;46902;52.920;6.536;2023-11-19T14:03:08;11.70;99.90
61016;DHT22;46902;52.920;6.536;2023-11-19T14:05:34;11.70;99.90
61016;DHT22;46902;52.920;6.536;2023-11-19T14:08:00;11.70;99.90
61016;DHT22;46902;52.920;6.536;2023-11-19T14:10:26;11.70;99.90
61016;DHT22;46902;52.920;6.536;2023-11-19T14:12:52;11.70;99.90
61016;DHT22;46902;52.920;6.536;2023-11-19T14:15:18;11.70;99.90
61016;DHT22;46902;52.920;6.536;2023-11-19T14:17:43;11.70;99.90
61016;DHT22;46902;52.920;6.536;2023-11-19T14:20:09;11.70;99.90
61016;DHT22;46902;52.920;6.536;2023-11-19T14:22:42;11.60;99.90
61016;DHT22;46902;52.920;6.536;2023-11-19T14:25:09;11.60;99.90
61016;DHT22;46902;52.920;6.536;2023-11-19T14:27:39;11.60;99.90
61016;DHT22;46902;52.920;6.536;2023-11-19T14:30:06;11.60;99.90
61016;DHT22;46902;52.920;6.536;2023-11-19T14:32:32;11.50;99.90
61016;DHT22;46902;52.920;6.536;2023-11-19T14:34:58;11.50;99.90
61016;DHT22;46902;52.920;6.536;2023-11-19T14:37:24;11.50;99.90
61016;DHT22;46902;52.920;6.536;2023-11-19T14:39:49;11.40;99.90
61016;DHT22;46902;52.920;6.536;2023-11-19T14:42:17;11.40;99.90
61016;DHT22;46902;52.920;6.536;2023-11-19T14:44:43;11.40;99.90
61016;DHT22;46902;52.920;6.536;2023-11-19T14:47:09;11.40;99.90
61016;DHT22;46902;52.920;6.536;2023-11-19T14:49:35;11.30;99.90
61016;DHT22;46902;52.920;6.536;2023-11-19T14:52:05;11.40;99.90
61016;DHT22;46902;52.920;6.536;2023-11-19T14:54:31;11.40;99.90
61016;DHT22;46902;52.920;6.536;2023-11-19T14:56:57;11.30;99.90
61016;DHT22;46902;52.920;6.536;2023-11-19T14:59:24;11.30;99.90
61016;DHT22;46902;52.920;6.536;2023-11-19T15:01:50;11.30;99.90
61016;DHT22;46902;52.920;6.536;2023-11-19T15:04:15;11.30;99.90
61016;DHT22;46902;52.920;6.536;2023-11-19T15:06:41;11.30;99.90
61016;DHT22;46902;52.920;6.536;2023-11-19T15:09:07;11.30;99.90
61016;DHT22;46902;52.920;6.536;2023-11-19T15:11:33;11.30;99.90
61016;DHT22;46902;52.920;6.536;2023-11-19T15:13:58;11.30;99.90
61016;DHT22;46902;52.920;6.536;2023-11-19T15:16:25;11.20;99.90
61016;DHT22;46902;52.920;6.536;2023-11-19T15:18:57;11.20;99.90
61016;DHT22;46902;52.920;6.536;2023-11-19T15:21:25;11.20;99.90
61016;DHT22;46902;52.920;6.536;2023-11-19T15:23:52;11.20;99.90
61016;DHT22;46902;52.920;6.536;2023-11-19T15:26:17;11.20;99.90
61016;DHT22;46902;52.920;6.536;2023-11-19T15:28:43;11.20;99.90
61016;DHT22;46902;52.920;6.536;2023-11-19T15:31:08;11.20;99.90
61016;DHT22;46902;52.920;6.536;2023-11-19T15:33:35;11.20;99.90
61016;DHT22;46902;52.920;6.536;2023-11-19T15:36:01;11.20;99.90
61016;DHT22;46902;52.920;6.536;2023-11-19T15:38:28;11.20;99.90
61016;DHT22;46902;52.920;6.536;2023-11-19T15:40:54;11.20;99.90
61016;DHT22;46902;52.920;6.536;2023-11-19T15:43:20;11.30;99.90
61016;DHT22;46902;52.920;6.536;2023-11-19T15:45:46;11.20;99.90
61016;DHT22;46902;52.920;6.536;2023-11-19T15:48:11;11.20;99.90
61016;DHT22;46902;52.920;6.536;2023-11-19T15:50:39;11.20;99.90
61016;DHT22;46902;52.920;6.536;2023-11-19T15:53:04;11.10;99.90